Time;durP1;ratioP1;P1;durP2;ratioP2;P2;SDS_P1;SDS_P2;PMS_P1;PMS_P2;Temp;Humidity;BMP_temperature;BMP_pressure;BME280_temperature;BME280_humidity;BME280_pressure;Samples;Min_cycle;Max_cycle;Signal;HPM_P1;HPM_P2
2021/04/25 00:01:31;;;;;;;8.27;3.70;;;6.00;65.30;;;;;;5070171;28;20405;-78
2021/04/25 00:03:57;;;;;;;11.82;3.63;;;6.00;65.30;;;;;;5096575;27;20078;-79
2021/04/25 00:06:22;;;;;;;13.13;3.78;;;6.00;65.30;;;;;;5073913;28;20067;-79
2021/04/25 00:08:48;;;;;;;10.88;4.13;;;6.00;65.40;;;;;;5091100;27;20024;-78
2021/04/25 00:11:14;;;;;;;11.77;3.88;;;6.00;65.50;;;;;;5076089;28;20094;-78
2021/04/25 00:13:43;;;;;;;15.57;4.20;;;6.00;65.50;;;;;;5044660;28;20086;-79
2021/04/25 00:16:09;;;;;;;8.63;3.67;;;6.00;65.50;;;;;;5078584;28;20097;-79
2021/04/25 00:18:35;;;;;;;7.90;3.15;;;6.00;65.50;;;;;;5064158;28;20119;-78
2021/04/25 00:21:01;;;;;;;13.75;3.25;;;6.00;65.50;;;;;;5074957;28;20035;-78
2021/04/25 00:23:27;;;;;;;13.48;3.60;;;6.00;65.30;;;;;;5061165;28;20405;-79
2021/04/25 00:25:53;;;;;;;8.73;3.20;;;6.00;65.30;;;;;;5030508;28;20036;-80
2021/04/25 00:28:19;;;;;;;13.55;3.00;;;6.00;65.00;;;;;;5064441;28;20043;-77
2021/04/25 00:30:45;;;;;;;7.32;2.80;;;6.00;64.70;;;;;;5066735;28;20040;-79
2021/04/25 00:33:10;;;;;;;8.00;2.70;;;5.90;64.40;;;;;;5073720;28;20068;-80
2021/04/25 00:35:36;;;;;;;9.32;2.95;;;5.90;64.20;;;;;;5077090;28;20035;-79
2021/04/25 00:38:03;;;;;;;13.90;3.00;;;5.90;64.10;;;;;;5062845;28;20033;-77
2021/04/25 00:40:29;;;;;;;9.70;2.70;;;5.90;64.10;;;;;;5076854;28;20040;-78
2021/04/25 00:42:55;;;;;;;12.05;2.72;;;5.90;64.10;;;;;;5084529;28;20028;-78
2021/04/25 00:45:21;;;;;;;9.75;2.67;;;5.90;64.00;;;;;;5085732;28;20093;-78
2021/04/25 00:47:49;;;;;;;10.00;2.53;;;5.80;63.80;;;;;;5076166;28;20586;-78
2021/04/25 00:50:25;;;;;;;11.55;2.28;;;5.80;64.60;;;;;;5090067;28;20032;-79
2021/04/25 00:52:54;;;;;;;4.45;1.83;;;5.80;64.10;;;;;;5075875;28;20040;-77
2021/04/25 00:55:26;;;;;;;12.05;2.33;;;5.80;64.30;;;;;;5080131;28;20035;-79
2021/04/25 00:57:53;;;;;;;11.85;2.40;;;5.80;64.20;;;;;;5075003;28;20140;-79
2021/04/25 01:00:20;;;;;;;7.72;2.40;;;5.80;64.20;;;;;;5064639;28;20093;-78
2021/04/25 01:02:45;;;;;;;8.73;3.55;;;5.80;65.10;;;;;;5060565;28;20032;-79
2021/04/25 01:05:13;;;;;;;6.15;1.77;;;5.80;64.60;;;;;;5061966;28;20039;-79
2021/04/25 01:07:39;;;;;;;9.20;2.10;;;5.70;64.60;;;;;;5066603;28;20043;-80
2021/04/25 01:10:07;;;;;;;12.00;1.90;;;5.70;64.70;;;;;;5069087;28;20028;-78
2021/04/25 01:12:34;;;;;;;8.20;1.70;;;5.70;64.70;;;;;;5067673;28;20495;-78
2021/04/25 01:14:59;;;;;;;10.23;2.35;;;5.70;64.60;;;;;;5066950;28;20135;-78
2021/04/25 01:17:26;;;;;;;12.63;2.65;;;5.70;64.60;;;;;;5046961;28;20561;-79
2021/04/25 01:19:52;;;;;;;10.48;2.67;;;5.80;64.80;;;;;;5093905;27;20071;-79
2021/04/25 01:22:21;;;;;;;8.32;2.90;;;5.70;64.80;;;;;;5075659;28;20035;-79
2021/04/25 01:24:47;;;;;;;12.02;2.53;;;5.70;64.90;;;;;;5072864;28;20487;-78
2021/04/25 01:27:13;;;;;;;5.45;2.40;;;5.70;64.90;;;;;;5077116;28;20068;-77
2021/04/25 01:29:39;;;;;;;8.25;2.30;;;5.80;65.10;;;;;;5072417;28;20113;-78
2021/04/25 01:32:06;;;;;;;13.13;2.63;;;5.70;65.30;;;;;;5110206;27;20414;-78
2021/04/25 01:34:32;;;;;;;14.23;2.72;;;5.70;65.30;;;;;;5072556;28;20468;-78
2021/04/25 01:36:58;;;;;;;9.88;2.63;;;5.70;66.20;;;;;;5070464;28;20040;-78
2021/04/25 01:39:25;;;;;;;12.70;2.58;;;5.80;65.50;;;;;;5061888;28;20032;-78
2021/04/25 01:41:52;;;;;;;8.48;2.05;;;5.70;65.60;;;;;;5062546;28;20036;-79
2021/04/25 01:44:18;;;;;;;11.90;2.45;;;5.70;65.80;;;;;;5064967;28;20063;-79
2021/04/25 01:46:44;;;;;;;10.52;2.58;;;5.70;65.80;;;;;;5047214;28;20033;-78
2021/04/25 01:49:10;;;;;;;9.68;2.33;;;5.70;66.00;;;;;;5066929;28;20472;-79
2021/04/25 01:51:36;;;;;;;9.20;2.05;;;5.70;66.20;;;;;;5071152;28;20454;-78
2021/04/25 01:54:03;;;;;;;9.43;2.45;;;5.70;66.40;;;;;;5069928;28;20458;-77
2021/04/25 01:56:29;;;;;;;11.90;2.55;;;5.70;66.70;;;;;;5074004;28;20050;-78
2021/04/25 01:58:55;;;;;;;12.57;2.83;;;5.70;66.60;;;;;;5076915;28;20107;-78
2021/04/25 02:01:21;;;;;;;10.38;2.58;;;5.70;66.60;;;;;;5074511;28;20031;-79
2021/04/25 02:03:47;;;;;;;11.88;2.30;;;5.70;66.80;;;;;;5077565;28;20089;-78
2021/04/25 02:06:13;;;;;;;13.38;2.20;;;5.70;66.50;;;;;;5077778;28;20040;-78
2021/04/25 02:08:38;;;;;;;9.98;2.30;;;5.70;66.10;;;;;;5066601;28;20036;-78
2021/04/25 02:11:05;;;;;;;7.10;2.00;;;5.70;66.00;;;;;;5063636;28;20060;-78
2021/04/25 02:13:30;;;;;;;11.48;2.55;;;5.70;65.90;;;;;;5078696;28;20672;-79
2021/04/25 02:15:56;;;;;;;9.52;2.22;;;5.60;66.00;;;;;;5050636;28;20034;-78
2021/04/25 02:18:22;;;;;;;12.02;2.20;;;5.70;66.10;;;;;;5064668;28;20044;-79
2021/04/25 02:20:48;;;;;;;13.15;2.72;;;5.70;66.30;;;;;;5063039;28;20693;-77
2021/04/25 02:23:14;;;;;;;8.35;2.17;;;5.70;66.30;;;;;;5065383;28;20120;-79
2021/04/25 02:25:39;;;;;;;10.35;2.58;;;5.60;66.60;;;;;;5064379;28;20055;-78
2021/04/25 02:28:06;;;;;;;7.68;1.75;;;5.60;66.60;;;;;;5079864;28;20038;-80
2021/04/25 02:30:36;;;;;;;7.93;1.80;;;5.60;66.80;;;;;;5063958;28;20052;-79
2021/04/25 02:33:03;;;;;;;10.07;2.03;;;5.70;66.80;;;;;;5064240;28;20067;-80
2021/04/25 02:35:31;;;;;;;5.00;1.58;;;5.70;66.70;;;;;;5068913;28;20110;-78
2021/04/25 02:37:58;;;;;;;7.75;1.90;;;5.60;66.70;;;;;;5064014;28;20059;-78
2021/04/25 02:40:27;;;;;;;10.23;2.05;;;5.60;66.80;;;;;;5093503;27;20115;-80
2021/04/25 02:42:54;;;;;;;7.20;1.88;;;5.60;66.90;;;;;;5066264;28;20029;-78
2021/04/25 02:45:21;;;;;;;13.48;2.45;;;5.60;66.90;;;;;;5064583;28;20051;-79
2021/04/25 02:47:49;;;;;;;7.47;1.85;;;5.60;67.00;;;;;;5082202;28;20040;-80
2021/04/25 02:50:17;;;;;;;8.43;2.05;;;5.60;67.30;;;;;;5070288;28;20127;-81
2021/04/25 02:52:43;;;;;;;12.70;1.80;;;5.60;67.60;;;;;;5076543;28;20116;-79
2021/04/25 02:55:09;;;;;;;9.80;2.15;;;5.70;67.70;;;;;;5074285;28;20229;-78
2021/04/25 02:57:36;;;;;;;15.50;2.45;;;5.60;67.70;;;;;;5061629;28;20083;-79
2021/04/25 03:00:04;;;;;;;11.50;2.55;;;5.60;67.80;;;;;;5061439;28;20124;-80
2021/04/25 03:02:30;;;;;;;6.57;1.90;;;5.60;68.00;;;;;;5067508;28;20055;-81
2021/04/25 03:04:55;;;;;;;9.15;1.83;;;5.60;68.00;;;;;;5072849;28;20037;-77
2021/04/25 03:07:21;;;;;;;8.48;1.80;;;5.60;68.20;;;;;;5055453;28;20074;-78
2021/04/25 03:09:47;;;;;;;7.95;1.83;;;5.70;68.40;;;;;;5067239;28;20068;-78
2021/04/25 03:12:13;;;;;;;12.95;2.13;;;5.70;68.60;;;;;;5064330;28;20040;-80
2021/04/25 03:14:38;;;;;;;10.85;1.95;;;5.60;68.50;;;;;;5079295;28;20450;-79
2021/04/25 03:17:04;;;;;;;17.30;2.30;;;5.70;68.60;;;;;;5061708;28;20041;-79
2021/04/25 03:19:31;;;;;;;7.40;1.55;;;5.60;68.20;;;;;;5065884;28;20063;-78
2021/04/25 03:21:57;;;;;;;6.15;1.42;;;5.70;67.80;;;;;;5053779;28;20047;-78
2021/04/25 03:24:23;;;;;;;9.98;2.03;;;5.60;67.50;;;;;;5066111;28;20040;-78
2021/04/25 03:26:49;;;;;;;9.65;2.05;;;5.60;67.50;;;;;;5090076;27;20063;-78
2021/04/25 03:29:15;;;;;;;7.68;2.20;;;5.60;67.50;;;;;;5076434;28;20054;-78
2021/04/25 03:31:41;;;;;;;11.30;1.80;;;5.60;67.60;;;;;;5080255;28;20526;-77
2021/04/25 03:34:07;;;;;;;13.25;2.00;;;5.60;67.60;;;;;;5084241;28;20059;-78
2021/04/25 03:36:33;;;;;;;10.52;1.83;;;5.60;67.70;;;;;;5083291;28;20061;-78
2021/04/25 03:38:59;;;;;;;9.40;1.80;;;5.60;67.80;;;;;;5085448;28;20115;-78
2021/04/25 03:41:26;;;;;;;11.88;2.15;;;5.60;68.40;;;;;;5086258;28;20048;-79
2021/04/25 03:43:53;;;;;;;9.40;1.80;;;5.60;67.90;;;;;;5079191;28;20081;-79
2021/04/25 03:46:19;;;;;;;8.90;2.20;;;5.60;67.90;;;;;;5076012;28;20604;-79
2021/04/25 03:48:45;;;;;;;10.63;1.90;;;5.60;68.00;;;;;;5075827;28;20162;-78
2021/04/25 03:51:11;;;;;;;9.43;1.90;;;5.60;68.10;;;;;;5074805;28;20035;-79
2021/04/25 03:53:38;;;;;;;11.07;2.25;;;5.60;68.20;;;;;;5081010;27;20622;-78
2021/04/25 03:56:04;;;;;;;10.50;1.95;;;5.60;68.10;;;;;;5057721;28;20662;-80
2021/04/25 03:58:30;;;;;;;11.52;1.70;;;5.60;68.20;;;;;;5061890;28;20032;-79
2021/04/25 04:00:56;;;;;;;8.02;2.00;;;5.60;68.30;;;;;;5031596;28;20093;-77
2021/04/25 04:03:22;;;;;;;8.48;1.42;;;5.60;68.60;;;;;;5067103;28;20039;-78
2021/04/25 04:05:48;;;;;;;12.95;2.25;;;5.60;68.50;;;;;;5056486;28;20498;-77
2021/04/25 04:08:13;;;;;;;18.15;2.25;;;5.60;68.60;;;;;;5061468;28;20088;-77
2021/04/25 04:10:39;;;;;;;7.10;1.45;;;5.60;68.60;;;;;;5058617;28;20072;-79
2021/04/25 04:13:05;;;;;;;13.60;2.05;;;5.60;68.60;;;;;;5065787;28;20367;-80
2021/04/25 04:15:31;;;;;;;14.73;1.80;;;5.60;68.30;;;;;;5092171;27;20479;-80
2021/04/25 04:17:58;;;;;;;8.57;1.67;;;5.60;68.20;;;;;;5047300;28;20173;-78
2021/04/25 04:20:24;;;;;;;13.00;1.95;;;5.60;68.20;;;;;;5075481;28;20118;-79
2021/04/25 04:22:50;;;;;;;9.85;1.65;;;5.60;68.20;;;;;;5073375;28;20068;-77
2021/04/25 04:25:16;;;;;;;9.98;1.52;;;5.60;68.30;;;;;;5066815;28;20107;-80
2021/04/25 04:27:41;;;;;;;14.35;1.75;;;5.60;68.20;;;;;;5076577;28;20067;-78
2021/04/25 04:30:08;;;;;;;13.43;2.53;;;5.60;68.30;;;;;;5063024;28;20051;-77
2021/04/25 04:32:34;;;;;;;17.20;1.92;;;5.60;68.40;;;;;;5049377;28;20103;-80
2021/04/25 04:35:00;;;;;;;8.65;2.10;;;5.60;68.40;;;;;;5060379;28;20127;-79
2021/04/25 04:37:26;;;;;;;9.05;1.55;;;5.60;68.30;;;;;;5064951;28;20044;-77
2021/04/25 04:39:52;;;;;;;9.30;1.52;;;5.60;68.30;;;;;;5062623;28;20237;-79
2021/04/25 04:42:19;;;;;;;15.90;2.25;;;5.60;68.40;;;;;;5062734;28;20059;-77
2021/04/25 04:44:45;;;;;;;11.90;1.98;;;5.60;68.40;;;;;;5076682;28;20028;-79
2021/04/25 04:47:11;;;;;;;13.23;1.90;;;5.60;68.40;;;;;;5080898;28;20110;-77
2021/04/25 04:49:36;;;;;;;7.28;1.65;;;5.60;68.50;;;;;;5065733;28;20040;-78
2021/04/25 04:52:03;;;;;;;14.55;2.30;;;5.60;68.40;;;;;;5058428;28;20036;-80
2021/04/25 04:54:28;;;;;;;12.00;2.15;;;5.60;68.40;;;;;;5070678;28;20023;-79
2021/04/25 04:56:54;;;;;;;8.82;1.73;;;5.70;68.40;;;;;;5090206;27;20028;-79
2021/04/25 04:59:20;;;;;;;7.50;1.55;;;5.60;68.40;;;;;;5059391;28;20047;-78
2021/04/25 05:01:46;;;;;;;7.53;1.80;;;5.70;68.50;;;;;;5062028;28;20041;-78
2021/04/25 05:04:12;;;;;;;12.98;2.15;;;5.70;68.60;;;;;;5065058;28;20036;-80
2021/04/25 05:06:37;;;;;;;6.03;1.48;;;5.60;68.50;;;;;;5064413;28;20483;-79
2021/04/25 05:09:04;;;;;;;9.88;2.15;;;5.70;68.40;;;;;;5077872;28;20055;-80
2021/04/25 05:11:30;;;;;;;11.50;2.00;;;5.70;68.40;;;;;;5077373;28;20040;-78
2021/04/25 05:13:56;;;;;;;10.50;1.65;;;5.80;68.30;;;;;;5058053;28;20046;-78
2021/04/25 05:16:21;;;;;;;7.50;1.65;;;5.80;68.30;;;;;;5075132;28;20114;-79
2021/04/25 05:18:47;;;;;;;8.65;2.47;;;5.80;68.20;;;;;;5085130;28;20029;-80
2021/04/25 05:21:13;;;;;;;22.45;2.28;;;5.80;68.50;;;;;;5076370;28;20415;-79
2021/04/25 05:23:39;;;;;;;9.23;1.73;;;5.80;68.60;;;;;;5063851;28;20125;-78
2021/04/25 05:26:05;;;;;;;10.20;1.60;;;5.80;68.50;;;;;;5078304;28;20040;-79
2021/04/25 05:28:31;;;;;;;9.95;1.83;;;5.80;68.40;;;;;;5062274;28;20036;-78
2021/04/25 05:30:58;;;;;;;10.02;2.30;;;5.80;68.40;;;;;;5072373;28;20036;-79
2021/04/25 05:33:24;;;;;;;14.23;2.05;;;5.90;68.50;;;;;;5086713;28;20131;-81
2021/04/25 05:35:50;;;;;;;10.07;2.30;;;5.90;68.50;;;;;;5086108;28;20128;-80
2021/04/25 05:38:16;;;;;;;11.73;2.33;;;5.90;68.50;;;;;;5064974;28;20087;-79
2021/04/25 05:40:42;;;;;;;12.35;2.17;;;5.90;68.40;;;;;;5047289;28;20600;-80
2021/04/25 05:43:10;;;;;;;8.82;1.85;;;5.90;68.40;;;;;;5048340;28;20058;-80
2021/04/25 05:45:36;;;;;;;10.40;1.83;;;6.00;68.40;;;;;;5057919;28;20055;-79
2021/04/25 05:48:02;;;;;;;7.05;1.98;;;6.00;68.30;;;;;;5060036;28;20033;-79
2021/04/25 05:50:29;;;;;;;11.68;1.90;;;6.10;68.20;;;;;;5057871;28;20418;-82
2021/04/25 05:52:55;;;;;;;12.45;1.92;;;6.10;68.00;;;;;;5061854;28;20056;-81
2021/04/25 05:55:21;;;;;;;10.63;2.13;;;6.10;68.20;;;;;;5060805;28;20505;-81
2021/04/25 05:57:47;;;;;;;14.27;2.10;;;6.10;67.90;;;;;;5063656;28;20055;-79
2021/04/25 06:00:17;;;;;;;11.80;2.05;;;6.10;67.90;;;;;;5046218;28;20048;-78
2021/04/25 06:02:43;;;;;;;8.43;1.90;;;6.20;67.90;;;;;;5064079;28;20539;-79
2021/04/25 06:05:10;;;;;;;12.00;2.03;;;6.20;67.80;;;;;;5063122;28;20067;-79
2021/04/25 06:07:36;;;;;;;11.43;2.22;;;6.20;67.70;;;;;;5075331;28;20119;-79
2021/04/25 06:10:04;;;;;;;17.42;2.47;;;6.30;67.70;;;;;;5082264;28;20505;-79
2021/04/25 06:12:30;;;;;;;11.02;2.30;;;6.30;67.50;;;;;;5093278;27;20041;-79
2021/04/25 06:14:56;;;;;;;11.60;2.00;;;6.40;67.40;;;;;;5069228;28;20024;-81
2021/04/25 06:17:22;;;;;;;11.98;2.03;;;6.30;67.20;;;;;;5055390;28;20043;-80
2021/04/25 06:19:48;;;;;;;10.95;1.90;;;6.40;67.20;;;;;;5053037;28;20040;-80
2021/04/25 06:22:14;;;;;;;8.73;2.28;;;6.40;67.10;;;;;;5070783;28;20537;-79
2021/04/25 06:24:41;;;;;;;12.20;1.90;;;6.40;66.50;;;;;;5053849;28;20063;-80
2021/04/25 06:27:08;;;;;;;9.43;1.80;;;6.40;66.60;;;;;;5063028;28;20572;-79
2021/04/25 06:29:35;;;;;;;9.85;1.98;;;6.50;67.00;;;;;;5086695;27;20032;-79
2021/04/25 06:32:01;;;;;;;12.68;1.90;;;6.50;66.80;;;;;;5085592;28;20043;-80
2021/04/25 06:34:27;;;;;;;14.95;2.00;;;6.60;66.30;;;;;;5087485;28;20040;-79
2021/04/25 06:37:08;;;;;;;10.60;1.75;;;6.60;66.00;;;;;;5074285;28;20028;-81
2021/04/25 06:39:34;;;;;;;11.10;1.75;;;6.60;65.90;;;;;;5054393;28;20083;-79
2021/04/25 06:42:00;;;;;;;9.30;1.60;;;6.60;65.70;;;;;;5070594;28;20542;-79
2021/04/25 06:44:26;;;;;;;13.88;2.10;;;6.60;65.40;;;;;;5069338;28;20064;-79
2021/04/25 06:46:52;;;;;;;13.27;1.98;;;6.70;65.70;;;;;;5066739;28;20591;-80
2021/04/25 06:49:18;;;;;;;9.52;2.25;;;6.70;65.70;;;;;;5068589;28;20414;-80
2021/04/25 06:51:44;;;;;;;12.15;1.90;;;6.70;65.50;;;;;;5086594;28;20036;-81
2021/04/25 06:54:10;;;;;;;16.75;2.47;;;6.80;65.50;;;;;;5088648;28;20040;-78
2021/04/25 06:56:37;;;;;;;13.65;2.50;;;6.90;65.60;;;;;;5051063;28;20338;-80
2021/04/25 06:59:04;;;;;;;7.80;1.60;;;6.90;65.60;;;;;;5065605;28;20105;-79
2021/04/25 07:01:30;;;;;;;11.02;1.88;;;7.00;65.70;;;;;;5067917;28;20051;-80
2021/04/25 07:03:55;;;;;;;7.72;1.98;;;7.10;65.60;;;;;;5060669;28;20032;-79
2021/04/25 07:06:21;;;;;;;12.93;2.40;;;7.20;65.40;;;;;;5094963;27;20173;-79
2021/04/25 07:08:47;;;;;;;13.45;1.92;;;7.30;65.10;;;;;;5052301;28;20407;-82
2021/04/25 07:11:16;;;;;;;11.60;2.03;;;7.30;65.00;;;;;;5053105;28;20032;-79
2021/04/25 07:13:42;;;;;;;12.48;2.15;;;7.40;64.70;;;;;;5062791;28;20395;-80
2021/04/25 07:16:07;;;;;;;15.45;2.17;;;7.40;64.50;;;;;;5101247;27;20029;-79
2021/04/25 07:18:33;;;;;;;14.05;2.15;;;7.50;64.30;;;;;;5050418;28;20032;-81
2021/04/25 07:20:59;;;;;;;13.88;2.03;;;7.40;64.50;;;;;;5062250;28;20036;-80
2021/04/25 07:23:25;;;;;;;8.30;1.58;;;7.50;65.10;;;;;;5063892;28;20502;-79
2021/04/25 07:25:54;;;;;;;11.95;1.75;;;7.50;65.10;;;;;;5070876;28;20226;-80
2021/04/25 07:28:20;;;;;;;11.60;1.83;;;7.60;65.30;;;;;;5066525;28;20135;-80
2021/04/25 07:30:47;;;;;;;10.02;1.65;;;7.60;65.10;;;;;;5060591;28;20136;-80
2021/04/25 07:33:17;;;;;;;10.88;1.67;;;7.70;65.20;;;;;;5078096;27;20143;-80
2021/04/25 07:35:43;;;;;;;12.00;1.80;;;7.70;65.20;;;;;;5071589;28;20036;-80
2021/04/25 07:38:10;;;;;;;11.35;1.95;;;7.80;64.80;;;;;;5078840;28;20035;-79
2021/04/25 07:40:37;;;;;;;14.15;3.20;;;7.90;64.70;;;;;;5062742;28;20402;-79
2021/04/25 07:43:04;;;;;;;10.10;1.40;;;7.90;64.60;;;;;;5063908;28;20850;-79
2021/04/25 07:45:29;;;;;;;13.65;1.73;;;7.90;63.90;;;;;;5060359;28;20037;-80
2021/04/25 07:47:55;;;;;;;12.18;1.80;;;7.80;64.10;;;;;;5066964;28;20025;-80
2021/04/25 07:50:22;;;;;;;9.05;1.85;;;7.80;64.10;;;;;;5048911;28;20024;-80
2021/04/25 07:52:48;;;;;;;12.80;1.90;;;7.80;64.10;;;;;;5061909;28;20040;-80
2021/04/25 07:55:17;;;;;;;8.70;1.77;;;7.80;63.70;;;;;;5064499;28;20402;-79
2021/04/25 07:57:43;;;;;;;10.38;1.75;;;7.80;63.00;;;;;;5069559;28;20055;-79
2021/04/25 08:00:11;;;;;;;11.10;1.88;;;7.70;62.50;;;;;;5065864;28;20059;-79
2021/04/25 08:02:37;;;;;;;7.90;1.45;;;7.60;62.00;;;;;;5064950;28;20037;-79
2021/04/25 08:05:04;;;;;;;9.18;1.67;;;7.70;62.20;;;;;;5062654;28;20032;-79
2021/04/25 08:07:30;;;;;;;11.57;1.60;;;7.70;61.80;;;;;;5069852;28;20795;-81
2021/04/25 08:09:56;;;;;;;18.92;2.17;;;7.70;61.50;;;;;;5061579;28;20078;-79
2021/04/25 08:12:22;;;;;;;12.52;1.70;;;7.70;61.60;;;;;;5069499;28;20032;-79
2021/04/25 08:14:48;;;;;;;17.25;1.88;;;7.80;61.10;;;;;;5055298;28;20035;-80
2021/04/25 08:17:14;;;;;;;8.70;1.50;;;7.80;61.20;;;;;;5082664;28;20036;-80
2021/04/25 08:19:39;;;;;;;11.50;2.38;;;7.90;60.40;;;;;;5086136;28;20074;-79
2021/04/25 08:22:06;;;;;;;6.07;1.80;;;8.00;60.10;;;;;;5086622;28;20314;-81
2021/04/25 08:24:33;;;;;;;7.72;1.95;;;8.00;61.40;;;;;;5056658;28;20040;-79
2021/04/25 08:27:00;;;;;;;8.90;1.48;;;8.10;60.20;;;;;;5066581;28;20069;-79
2021/04/25 08:29:26;;;;;;;6.70;1.60;;;8.10;59.00;;;;;;5066317;28;20286;-79
2021/04/25 08:31:55;;;;;;;9.25;1.58;;;8.10;58.90;;;;;;5066975;28;20054;-80
2021/04/25 08:34:21;;;;;;;6.45;1.67;;;8.10;58.90;;;;;;5064589;28;20597;-79
2021/04/25 08:36:47;;;;;;;7.90;1.33;;;8.10;58.60;;;;;;5076673;28;20032;-79
2021/04/25 08:39:13;;;;;;;10.45;2.13;;;8.20;58.60;;;;;;5057303;28;20036;-79
2021/04/25 08:41:39;;;;;;;4.55;1.52;;;8.10;58.40;;;;;;5049403;28;20062;-80
2021/04/25 08:44:08;;;;;;;6.95;1.58;;;8.10;58.40;;;;;;5064352;28;20367;-79
2021/04/25 08:46:35;;;;;;;7.18;1.17;;;8.10;58.10;;;;;;5064481;28;20531;-79
2021/04/25 08:49:02;;;;;;;12.10;1.67;;;8.10;57.60;;;;;;5056911;28;20570;-79
2021/04/25 08:51:27;;;;;;;8.85;1.30;;;8.20;57.70;;;;;;5062048;28;20052;-80
2021/04/25 08:53:54;;;;;;;4.95;1.35;;;8.30;57.60;;;;;;5062219;28;20552;-79
2021/04/25 08:56:20;;;;;;;10.00;1.60;;;8.20;57.60;;;;;;5076857;28;20064;-79
2021/04/25 08:58:47;;;;;;;9.43;1.40;;;8.30;57.50;;;;;;5082356;28;20530;-78
2021/04/25 09:01:14;;;;;;;8.15;1.30;;;8.30;57.70;;;;;;5068690;28;20471;-79
2021/04/25 09:03:40;;;;;;;9.60;1.73;;;8.30;57.60;;;;;;5083831;28;20037;-77
2021/04/25 09:06:07;;;;;;;15.10;2.17;;;8.30;57.60;;;;;;5085624;28;20039;-78
2021/04/25 09:08:48;;;;;;;10.75;1.67;;;8.20;57.50;;;;;;5071103;28;20528;-79
2021/04/25 09:11:47;;;;;;;8.15;1.70;;;8.20;57.90;;;;;;5060642;28;20044;-78
2021/04/25 09:14:16;;;;;;;9.57;1.60;;;8.30;57.60;;;;;;5063117;28;20041;-79
2021/04/25 09:16:57;;;;;;;8.48;1.70;;;8.30;58.20;;;;;;5075950;28;20063;-78
2021/04/25 09:19:25;;;;;;;7.10;1.80;;;8.40;58.30;;;;;;5078503;28;20032;-79
2021/04/25 09:22:02;;;;;;;9.32;1.85;;;8.50;58.10;;;;;;5075124;28;20037;-79
2021/04/25 09:24:30;;;;;;;5.07;1.58;;;8.50;58.00;;;;;;5075688;28;20394;-79
2021/04/25 09:26:57;;;;;;;14.05;1.80;;;8.50;57.90;;;;;;5071876;28;20032;-82
2021/04/25 09:29:26;;;;;;;6.90;2.10;;;8.50;58.10;;;;;;5084525;28;20314;-79
2021/04/25 09:31:55;;;;;;;8.93;2.15;;;8.50;58.00;;;;;;5091121;28;20437;-79
2021/04/25 09:34:29;;;;;;;13.60;1.73;;;8.40;58.00;;;;;;5086007;28;20073;-79
2021/04/25 09:36:56;;;;;;;10.20;2.03;;;8.40;58.30;;;;;;5115335;27;20449;-81
2021/04/25 09:39:23;;;;;;;9.52;2.13;;;8.30;58.40;;;;;;5070297;28;20034;-80
2021/04/25 09:41:50;;;;;;;14.98;2.15;;;8.30;58.40;;;;;;5074148;28;20059;-79
2021/04/25 09:44:29;;;;;;;10.52;2.42;;;8.30;58.60;;;;;;5072265;28;20047;-80
2021/04/25 09:46:57;;;;;;;12.27;1.90;;;8.30;58.70;;;;;;5072401;28;20509;-80
2021/04/25 09:49:45;;;;;;;11.77;1.75;;;8.40;58.80;;;;;;5097428;27;20024;-80
2021/04/25 09:52:33;;;;;;;9.27;1.90;;;8.40;58.70;;;;;;5068498;28;20045;-78
2021/04/25 09:55:21;;;;;;;11.65;1.70;;;8.40;58.60;;;;;;5071372;28;20102;-80
2021/04/25 09:57:50;;;;;;;14.77;2.35;;;8.40;58.50;;;;;;5068330;28;20383;-80
2021/04/25 10:00:16;;;;;;;9.60;2.28;;;8.50;58.80;;;;;;5076160;28;20473;-81
2021/04/25 10:03:10;;;;;;;12.48;1.95;;;8.50;58.80;;;;;;5056928;28;20502;-82
2021/04/25 10:05:37;;;;;;;7.72;1.80;;;8.50;58.90;;;;;;5073041;28;20036;-80
2021/04/25 10:08:04;;;;;;;11.68;2.17;;;8.60;58.80;;;;;;5074935;28;20568;-79
2021/04/25 10:10:30;;;;;;;9.30;2.10;;;8.60;58.40;;;;;;5076556;28;20028;-78
2021/04/25 10:12:56;;;;;;;9.73;1.50;;;8.70;58.40;;;;;;5072200;28;20419;-79
2021/04/25 10:15:23;;;;;;;11.13;1.75;;;8.80;58.10;;;;;;5056140;28;20032;-80
2021/04/25 10:17:51;;;;;;;9.82;1.83;;;8.80;58.10;;;;;;5079601;28;20059;-80
2021/04/25 10:20:19;;;;;;;11.40;1.67;;;8.80;58.10;;;;;;5081569;28;20040;-79
2021/04/25 10:22:48;;;;;;;9.23;1.95;;;8.80;58.00;;;;;;5085915;28;20482;-79
2021/04/25 10:25:17;;;;;;;12.23;1.75;;;8.90;58.60;;;;;;5081209;28;20035;-78
2021/04/25 10:27:48;;;;;;;14.85;1.40;;;9.00;58.10;;;;;;5066052;28;21029;-78
2021/04/25 10:30:15;;;;;;;6.82;1.88;;;9.00;58.40;;;;;;5071030;28;20029;-79
2021/04/25 10:32:43;;;;;;;12.05;2.00;;;9.20;57.70;;;;;;5104723;27;20044;-79
2021/04/25 10:35:14;;;;;;;9.40;1.65;;;9.20;57.30;;;;;;5081914;28;20048;-80
2021/04/25 10:37:40;;;;;;;7.07;2.13;;;9.40;57.40;;;;;;5066895;28;20036;-81
2021/04/25 10:40:45;;;;;;;5.53;1.38;;;9.50;56.80;;;;;;5056704;28;20032;-79
2021/04/25 10:43:11;;;;;;;10.38;1.58;;;9.60;56.00;;;;;;5047444;28;20291;-80
2021/04/25 10:45:57;;;;;;;6.82;1.85;;;9.70;56.30;;;;;;5085038;28;20028;-80
2021/04/25 10:48:28;;;;;;;11.02;1.75;;;9.80;55.10;;;;;;5078459;28;20030;-81
2021/04/25 10:51:14;;;;;;;10.20;2.30;;;9.70;55.30;;;;;;5087325;28;20119;-79
2021/04/25 10:53:46;;;;;;;6.40;1.55;;;9.70;55.10;;;;;;5087696;28;20036;-79
2021/04/25 10:56:20;;;;;;;12.32;2.13;;;9.70;55.20;;;;;;5085450;28;20036;-79
2021/04/25 10:58:47;;;;;;;7.07;1.80;;;9.80;55.30;;;;;;5082295;28;20047;-81
2021/04/25 11:01:39;;;;;;;10.07;1.90;;;9.90;54.50;;;;;;5093354;28;20059;-79
2021/04/25 11:04:05;;;;;;;8.27;1.70;;;10.00;55.10;;;;;;5097578;28;20036;-80
2021/04/25 11:06:31;;;;;;;18.60;2.33;;;10.20;54.40;;;;;;5104333;28;20046;-78
2021/04/25 11:08:57;;;;;;;10.30;2.10;;;10.30;54.20;;;;;;5072683;28;20119;-81
2021/04/25 11:11:49;;;;;;;9.45;1.70;;;10.50;54.00;;;;;;5081681;28;20503;-80
2021/04/25 11:14:38;;;;;;;10.50;1.50;;;10.70;53.60;;;;;;5047941;28;20085;-79
2021/04/25 11:17:30;;;;;;;8.90;1.92;;;11.00;54.10;;;;;;5069459;28;20040;-80
2021/04/25 11:19:56;;;;;;;6.80;1.73;;;11.20;51.10;;;;;;5067350;28;20036;-80
2021/04/25 11:22:42;;;;;;;8.20;1.70;;;11.10;50.90;;;;;;5071976;28;20043;-79
2021/04/25 11:25:27;;;;;;;7.55;2.00;;;11.10;50.90;;;;;;5071671;28;20095;-81
2021/04/25 11:27:53;;;;;;;6.35;1.67;;;11.10;50.80;;;;;;5067789;28;20145;-81
2021/04/25 11:30:40;;;;;;;12.30;2.20;;;11.20;51.50;;;;;;5062834;28;20049;-79
2021/04/25 11:33:34;;;;;;;10.35;1.92;;;11.20;50.00;;;;;;5070431;28;20479;-80
2021/04/25 11:36:38;;;;;;;9.40;1.80;;;11.30;50.40;;;;;;5063203;28;20504;-80
2021/04/25 11:39:05;;;;;;;7.50;1.70;;;11.40;50.50;;;;;;5070424;28;20488;-79
2021/04/25 11:41:31;;;;;;;10.93;1.85;;;11.50;50.40;;;;;;5065414;28;20059;-78
2021/04/25 11:43:57;;;;;;;11.38;1.85;;;11.50;50.20;;;;;;5068922;28;20027;-81
2021/04/25 11:46:30;;;;;;;8.88;1.55;;;11.50;50.30;;;;;;5068090;27;20410;-81
2021/04/25 11:48:57;;;;;;;9.30;1.80;;;11.50;50.20;;;;;;5074968;28;20095;-82
2021/04/25 11:51:24;;;;;;;11.95;2.03;;;11.60;49.90;;;;;;5055191;28;20461;-79
2021/04/25 11:53:50;;;;;;;10.80;2.10;;;11.70;49.70;;;;;;5066221;28;20453;-80
2021/04/25 11:56:27;;;;;;;6.15;1.30;;;11.80;50.20;;;;;;5064145;28;20024;-80
2021/04/25 11:59:15;;;;;;;9.98;1.90;;;12.00;49.50;;;;;;5058359;28;20405;-80
2021/04/25 12:01:41;;;;;;;8.35;1.95;;;12.10;48.60;;;;;;5066768;28;20043;-80
2021/04/25 12:04:06;;;;;;;9.68;2.40;;;12.00;49.70;;;;;;5066062;28;20048;-80
2021/04/25 12:06:49;;;;;;;7.38;1.83;;;11.90;49.20;;;;;;5064988;28;20036;-80
2021/04/25 12:09:17;;;;;;;6.80;1.70;;;11.70;49.10;;;;;;5063594;28;20086;-80
2021/04/25 12:11:44;;;;;;;12.27;2.03;;;11.50;50.00;;;;;;5069531;28;20123;-80
2021/04/25 12:14:19;;;;;;;10.35;1.70;;;11.40;50.70;;;;;;5066072;28;20044;-81
2021/04/25 12:16:45;;;;;;;6.50;1.75;;;11.50;51.40;;;;;;5060144;28;20491;-79
2021/04/25 12:19:24;;;;;;;6.43;1.70;;;11.80;51.40;;;;;;5071642;28;20042;-81
2021/04/25 12:21:50;;;;;;;9.13;1.73;;;12.10;50.60;;;;;;5080552;28;20024;-80
2021/04/25 12:24:21;;;;;;;9.45;1.92;;;12.40;50.50;;;;;;5065210;28;20119;-80
2021/04/25 12:26:47;;;;;;;8.73;2.00;;;12.60;49.80;;;;;;5059359;28;20035;-80
2021/04/25 12:29:13;;;;;;;4.65;1.55;;;12.90;49.90;;;;;;5060046;28;20028;-79
2021/04/25 12:31:45;;;;;;;10.50;1.98;;;13.10;48.60;;;;;;5065555;28;20043;-79
2021/04/25 12:34:16;;;;;;;7.03;1.42;;;13.10;48.00;;;;;;5080503;28;20037;-79
2021/04/25 12:36:52;;;;;;;9.02;1.50;;;12.90;46.80;;;;;;5082174;28;20060;-81
2021/04/25 12:39:18;;;;;;;7.53;1.67;;;12.60;47.20;;;;;;5062365;28;20119;-80
2021/04/25 12:41:55;;;;;;;7.75;1.50;;;12.40;47.50;;;;;;5066422;28;20562;-81
2021/04/25 12:44:37;;;;;;;6.70;1.80;;;12.20;47.20;;;;;;5071533;28;20184;-80
2021/04/25 12:47:04;;;;;;;6.45;1.50;;;12.20;47.60;;;;;;5063232;28;20032;-83
2021/04/25 12:49:38;;;;;;;7.15;1.73;;;12.30;48.00;;;;;;5067449;28;20093;-80
2021/04/25 12:52:06;;;;;;;5.47;1.58;;;12.50;47.30;;;;;;5067917;28;20028;-81
2021/04/25 12:54:43;;;;;;;6.82;1.52;;;12.70;47.40;;;;;;5065226;28;20036;-80
2021/04/25 12:57:09;;;;;;;10.00;1.60;;;12.80;47.20;;;;;;5078342;28;20024;-80